createdAt,value
2022-10-01T00:00:03.504Z,12.05
2022-10-01T00:02:51.676Z,12.02
2022-10-01T00:06:00.734Z,11.99
2022-10-01T00:08:52.291Z,11.96
2022-10-01T00:11:42.428Z,11.93
2022-10-01T00:18:57.900Z,11.88
2022-10-01T00:21:48.862Z,11.88
2022-10-01T00:24:59.030Z,11.88
2022-10-01T00:32:09.421Z,11.90
2022-10-01T00:35:28.668Z,11.90
2022-10-01T00:38:42.702Z,11.88
2022-10-01T00:41:34.756Z,11.87
2022-10-01T00:44:34.827Z,11.85
2022-10-01T00:48:08.715Z,11.82
2022-10-01T00:51:16.951Z,11.80
2022-10-01T00:58:39.566Z,11.77
2022-10-01T01:01:46.162Z,11.75
2022-10-01T01:05:02.416Z,11.72
2022-10-01T01:08:12.884Z,11.69
2022-10-01T01:11:15.374Z,11.67
2022-10-01T01:14:06.742Z,11.64
2022-10-01T01:17:19.532Z,11.62
2022-10-01T01:20:50.203Z,11.59
2022-10-01T01:24:20.524Z,11.57
2022-10-01T01:27:38.023Z,11.55
2022-10-01T01:30:50.127Z,11.52
2022-10-01T01:33:59.486Z,11.50
2022-10-01T01:37:11.793Z,11.50
2022-10-01T01:40:21.187Z,11.49
2022-10-01T01:43:32.733Z,11.50
2022-10-01T01:46:44.493Z,11.49
2022-10-01T01:49:41.950Z,11.49
2022-10-01T01:52:50.076Z,11.48
2022-10-01T01:55:59.762Z,11.49
2022-10-01T01:58:50.728Z,11.48
2022-10-01T02:01:42.801Z,11.48
2022-10-01T02:04:54.170Z,11.48
2022-10-01T02:08:23.831Z,11.48
2022-10-01T02:11:20.327Z,11.48
2022-10-01T02:14:15.562Z,11.47
2022-10-01T02:17:28.848Z,11.46
2022-10-01T02:20:28.588Z,11.45
2022-10-01T02:23:42.728Z,11.42
2022-10-01T02:26:45.195Z,11.41
2022-10-01T02:29:54.650Z,11.40
2022-10-01T02:33:04.278Z,11.41
2022-10-01T02:35:53.347Z,11.40
2022-10-01T02:38:55.554Z,11.38
2022-10-01T02:41:48.089Z,11.36
2022-10-01T02:44:40.007Z,11.36
2022-10-01T02:47:41.148Z,11.35
2022-10-01T02:50:32.187Z,11.36
2022-10-01T02:53:22.843Z,11.38
2022-10-01T03:00:32.512Z,11.41
2022-10-01T03:03:41.437Z,11.44
2022-10-01T03:06:29.501Z,11.47
2022-10-01T03:09:37.555Z,11.52
2022-10-01T03:12:35.697Z,11.56
2022-10-01T03:15:32.251Z,11.57
2022-10-01T03:18:40.347Z,11.58
2022-10-01T03:21:31.428Z,11.61
2022-10-01T03:24:28.515Z,11.63
2022-10-01T03:27:25.822Z,11.61
2022-10-01T03:30:34.074Z,11.59
2022-10-01T03:33:20.993Z,11.59
2022-10-01T03:36:30.156Z,11.59
2022-10-01T03:39:49.555Z,11.57
2022-10-01T03:46:39.267Z,11.52
2022-10-01T03:50:05.249Z,11.50
2022-10-01T03:53:19.107Z,11.48
2022-10-01T03:56:29.519Z,11.45
2022-10-01T03:59:17.678Z,11.44
2022-10-01T04:02:27.366Z,11.43
2022-10-01T04:09:26.872Z,11.37
2022-10-01T04:12:23.539Z,11.34
2022-10-01T04:19:42.620Z,11.28
2022-10-01T04:23:08.582Z,11.25
2022-10-01T04:26:40.080Z,11.23
2022-10-01T04:29:48.247Z,11.22
2022-10-01T04:32:37.441Z,11.22
2022-10-01T04:36:08.764Z,11.20
2022-10-01T04:39:16.990Z,11.20
2022-10-01T04:42:43.509Z,11.20
2022-10-01T04:45:58.484Z,11.20
2022-10-01T04:49:45.288Z,11.20
2022-10-01T04:52:53.751Z,11.21
2022-10-01T04:56:02.464Z,11.23
2022-10-01T04:58:53.008Z,11.23
2022-10-01T05:02:17.023Z,11.23
2022-10-01T05:05:26.833Z,11.24
2022-10-01T05:08:34.920Z,11.25
2022-10-01T05:11:43.106Z,11.27
2022-10-01T05:14:51.235Z,11.25
2022-10-01T05:18:18.724Z,11.25
2022-10-01T05:21:45.615Z,11.25
2022-10-01T05:24:47.347Z,11.24
2022-10-01T05:27:44.551Z,11.25
2022-10-01T05:30:35.407Z,11.24
2022-10-01T05:33:43.580Z,11.24
2022-10-01T05:40:53.095Z,11.25
2022-10-01T05:44:38.729Z,11.27
2022-10-01T05:48:06.318Z,11.29
2022-10-01T05:51:15.669Z,11.29
2022-10-01T05:54:07.794Z,11.29
2022-10-01T05:57:14.527Z,11.30
2022-10-01T06:04:11.589Z,11.32
2022-10-01T06:07:19.815Z,11.32
2022-10-01T06:10:18.279Z,11.33
2022-10-01T06:13:09.261Z,11.34
2022-10-01T06:16:43.697Z,11.38
2022-10-01T06:19:51.995Z,11.46
2022-10-01T06:22:44.177Z,11.50
2022-10-01T06:25:52.339Z,11.52
2022-10-01T06:29:02.973Z,11.55
2022-10-01T06:32:13.643Z,11.59
2022-10-01T06:35:21.798Z,11.61
2022-10-01T06:38:36.007Z,11.61
2022-10-01T06:41:42.981Z,11.61
2022-10-01T06:44:51.186Z,11.64
2022-10-01T06:52:51.428Z,11.63
2022-10-01T06:55:52.618Z,11.62
2022-10-01T06:59:05.850Z,11.61
2022-10-01T07:02:02.629Z,11.63
2022-10-01T07:05:48.194Z,11.68
2022-10-01T07:09:13.775Z,11.76
2022-10-01T07:12:22.489Z,11.83
2022-10-01T07:15:30.718Z,12.03
2022-10-01T07:18:41.175Z,13.01
2022-10-01T07:22:05.370Z,13.90
2022-10-01T07:25:04.451Z,14.82
2022-10-01T07:27:40.721Z,15.42
2022-10-01T07:30:09.259Z,15.95
2022-10-01T07:32:37.165Z,16.48
2022-10-01T07:35:05.588Z,16.93
2022-10-01T07:37:33.330Z,17.39
2022-10-01T07:40:06.564Z,17.77
2022-10-01T07:42:52.827Z,18.05
2022-10-01T07:45:22.639Z,18.31
2022-10-01T07:47:54.219Z,18.55
2022-10-01T07:50:25.423Z,18.27
2022-10-01T07:52:53.621Z,17.90
2022-10-01T07:55:21.557Z,18.04
2022-10-01T07:57:52.501Z,18.62
2022-10-01T08:00:20.299Z,19.21
2022-10-01T08:02:48.634Z,19.77
2022-10-01T08:05:19.608Z,20.33
2022-10-01T08:07:48.105Z,20.73
2022-10-01T08:10:17.385Z,21.10
2022-10-01T08:12:45.185Z,21.57
2022-10-01T08:15:13.341Z,21.83
2022-10-01T08:17:41.471Z,22.15
2022-10-01T08:20:11.418Z,22.46
2022-10-01T08:22:42.040Z,22.75
2022-10-01T08:25:10.414Z,23.08
2022-10-01T08:27:38.035Z,23.34
2022-10-01T08:30:06.548Z,23.30
2022-10-01T08:32:34.122Z,22.73
2022-10-01T08:35:04.302Z,21.63
2022-10-01T08:37:31.847Z,21.95
2022-10-01T08:39:59.341Z,22.52
2022-10-01T08:42:39.412Z,21.45
2022-10-01T08:45:11.640Z,21.94
2022-10-01T08:47:40.377Z,21.42
2022-10-01T08:50:14.319Z,20.25
2022-10-01T08:52:46.838Z,20.09
2022-10-01T08:55:17.685Z,20.68
2022-10-01T08:57:49.635Z,20.23
2022-10-01T09:00:18.629Z,20.86
2022-10-01T09:02:49.113Z,21.94
2022-10-01T09:05:20.464Z,21.92
2022-10-01T09:07:54.452Z,22.30
2022-10-01T09:10:26.172Z,22.97
2022-10-01T09:13:04.054Z,23.21
2022-10-01T09:15:34.282Z,23.81
2022-10-01T09:18:07.656Z,24.19
2022-10-01T09:20:39.030Z,25.08
2022-10-01T09:23:14.277Z,25.98
2022-10-01T09:25:43.091Z,26.76
2022-10-01T09:28:14.581Z,27.38
2022-10-01T09:30:43.542Z,28.33
2022-10-01T09:33:13.970Z,28.11
2022-10-01T09:35:43.898Z,26.39
2022-10-01T09:38:15.686Z,26.73
2022-10-01T09:40:54.369Z,26.44
2022-10-01T09:43:22.982Z,25.67
2022-10-01T09:45:51.262Z,24.88
2022-10-01T09:48:26.610Z,24.02
2022-10-01T09:50:58.473Z,23.51
2022-10-01T09:53:30.521Z,23.38
2022-10-01T09:56:01.971Z,23.42
2022-10-01T09:58:30.132Z,23.05
2022-10-01T10:00:57.810Z,22.27
2022-10-01T10:03:29.403Z,21.53
2022-10-01T10:05:59.370Z,20.99
2022-10-01T10:08:29.925Z,20.53
2022-10-01T10:11:00.307Z,20.31
2022-10-01T10:13:31.571Z,21.70
2022-10-01T10:16:00.056Z,23.88
2022-10-01T10:18:29.679Z,25.88
2022-10-01T10:20:58.923Z,27.48
2022-10-01T10:23:28.516Z,28.48
2022-10-01T10:26:00.317Z,28.91
2022-10-01T10:28:28.798Z,28.38
2022-10-01T10:30:59.102Z,28.75
2022-10-01T10:33:26.866Z,29.28
2022-10-01T10:35:59.271Z,28.78
2022-10-01T10:38:31.318Z,27.73
2022-10-01T10:41:00.074Z,26.88
2022-10-01T10:43:29.803Z,25.93
2022-10-01T10:45:58.022Z,25.22
2022-10-01T10:48:28.842Z,24.11
2022-10-01T10:51:00.717Z,23.05
2022-10-01T10:53:30.769Z,23.62
2022-10-01T10:56:00.612Z,23.65
2022-10-01T10:58:29.366Z,23.33
2022-10-01T11:00:59.124Z,23.98
2022-10-01T11:03:28.469Z,23.14
2022-10-01T11:05:59.120Z,22.20
2022-10-01T11:08:28.407Z,21.23
2022-10-01T11:11:03.013Z,20.22
2022-10-01T11:13:40.694Z,19.25
2022-10-01T11:16:18.514Z,18.50
2022-10-01T11:19:00.999Z,18.06
2022-10-01T11:21:48.094Z,18.53
2022-10-01T11:24:25.663Z,18.43
2022-10-01T11:26:55.255Z,20.20
2022-10-01T11:29:31.887Z,22.52
2022-10-01T11:32:04.704Z,25.17
2022-10-01T11:34:49.113Z,27.42
2022-10-01T11:37:28.382Z,29.31
2022-10-01T11:39:58.693Z,29.72
2022-10-01T11:42:31.308Z,29.80
2022-10-01T11:45:03.957Z,29.57
2022-10-01T11:47:34.029Z,29.35
2022-10-01T11:50:03.116Z,30.38
2022-10-01T11:52:34.569Z,31.46
2022-10-01T11:55:26.896Z,32.55
2022-10-01T11:58:15.528Z,33.38
2022-10-01T12:00:48.122Z,33.84
2022-10-01T12:03:18.204Z,34.25
2022-10-01T12:05:46.134Z,34.74
2022-10-01T12:08:16.395Z,34.42
2022-10-01T12:10:47.603Z,31.97
2022-10-01T12:13:20.265Z,29.86
2022-10-01T12:15:50.075Z,29.74
2022-10-01T12:18:25.218Z,31.29
2022-10-01T12:20:54.685Z,31.31
2022-10-01T12:23:27.246Z,31.17
2022-10-01T12:26:03.797Z,30.78
2022-10-01T12:28:34.168Z,31.75
2022-10-01T12:31:08.316Z,31.09
2022-10-01T12:33:43.545Z,29.82
2022-10-01T12:36:16.974Z,28.07
2022-10-01T12:38:53.827Z,26.30
2022-10-01T12:41:29.485Z,24.76
2022-10-01T12:44:14.025Z,23.64
2022-10-01T12:46:47.598Z,22.63
2022-10-01T12:49:22.095Z,21.63
2022-10-01T12:52:01.341Z,20.83
2022-10-01T12:54:48.484Z,20.34
2022-10-01T12:57:26.502Z,20.11
2022-10-01T13:00:02.532Z,20.10
2022-10-01T13:02:38.981Z,20.34
2022-10-01T13:05:16.208Z,20.54
2022-10-01T13:07:52.058Z,21.82
2022-10-01T13:10:24.441Z,24.61
2022-10-01T13:13:05.861Z,26.88
2022-10-01T13:15:35.713Z,28.39
2022-10-01T13:18:21.709Z,29.01
2022-10-01T13:20:57.560Z,29.07
2022-10-01T13:23:30.252Z,29.93
2022-10-01T13:26:05.492Z,30.62
2022-10-01T13:28:39.305Z,30.06
2022-10-01T13:31:14.172Z,27.78
2022-10-01T13:33:53.378Z,25.98
2022-10-01T13:36:28.485Z,26.33
2022-10-01T13:38:56.264Z,27.63
2022-10-01T13:41:26.547Z,28.53
2022-10-01T13:43:58.647Z,29.25
2022-10-01T13:46:30.701Z,29.91
2022-10-01T13:49:02.176Z,30.10
2022-10-01T13:51:34.864Z,30.15
2022-10-01T13:54:02.901Z,30.20
2022-10-01T13:56:31.917Z,30.09
2022-10-01T13:58:59.962Z,29.85
2022-10-01T14:01:30.038Z,29.76
2022-10-01T14:04:04.623Z,29.67
2022-10-01T14:06:42.362Z,29.44
2022-10-01T14:09:13.862Z,27.86
2022-10-01T14:12:02.393Z,26.68
2022-10-01T14:14:52.197Z,26.52
2022-10-01T14:17:22.182Z,26.51
2022-10-01T14:19:50.821Z,26.55
2022-10-01T14:22:24.772Z,26.60
2022-10-01T14:25:04.501Z,26.55
2022-10-01T14:27:36.018Z,26.39
2022-10-01T14:30:06.232Z,26.26
2022-10-01T14:32:42.855Z,26.08
2022-10-01T14:35:20.247Z,25.88
2022-10-01T14:37:48.191Z,25.59
2022-10-01T14:40:17.650Z,25.36
2022-10-01T14:42:55.668Z,25.07
2022-10-01T14:45:23.549Z,24.74
2022-10-01T14:48:00.808Z,24.51
2022-10-01T14:50:30.306Z,24.25
2022-10-01T14:52:58.551Z,23.95
2022-10-01T14:55:26.997Z,23.69
2022-10-01T14:57:58.134Z,23.40
2022-10-01T15:00:27.348Z,23.23
2022-10-01T15:03:03.372Z,23.01
2022-10-01T15:05:32.238Z,22.77
2022-10-01T15:08:03.559Z,22.31
2022-10-01T15:10:31.322Z,21.75
2022-10-01T15:12:59.432Z,21.63
2022-10-01T15:15:29.421Z,21.61
2022-10-01T15:17:57.063Z,21.58
2022-10-01T15:20:25.049Z,21.48
2022-10-01T15:22:57.814Z,21.39
2022-10-01T15:25:29.570Z,21.16
2022-10-01T15:27:59.942Z,20.97
2022-10-01T15:30:27.963Z,20.78
2022-10-01T15:32:55.637Z,20.61
2022-10-01T15:35:24.023Z,20.45
2022-10-01T15:37:54.354Z,20.22
2022-10-01T15:40:25.125Z,19.87
2022-10-01T15:43:11.297Z,19.54
2022-10-01T15:45:39.167Z,19.21
2022-10-01T15:48:19.483Z,18.97
2022-10-01T15:50:57.054Z,18.80
2022-10-01T15:53:24.884Z,18.64
2022-10-01T15:55:56.567Z,18.50
2022-10-01T15:58:29.889Z,18.39
2022-10-01T16:01:00.530Z,18.26
2022-10-01T16:03:30.705Z,18.12
2022-10-01T16:06:18.128Z,18.02
2022-10-01T16:08:53.894Z,17.95
2022-10-01T16:11:36.291Z,17.92
2022-10-01T16:14:28.694Z,17.81
2022-10-01T16:17:10.538Z,17.70
2022-10-01T16:19:44.636Z,17.59
2022-10-01T16:22:19.649Z,17.49
2022-10-01T16:24:48.511Z,17.46
2022-10-01T16:27:27.077Z,17.45
2022-10-01T16:30:26.893Z,17.40
2022-10-01T16:32:58.659Z,17.35
2022-10-01T16:35:40.397Z,17.32
2022-10-01T16:38:29.216Z,17.22
2022-10-01T16:41:07.203Z,17.13
2022-10-01T16:43:36.343Z,17.07
2022-10-01T16:46:04.477Z,16.97
2022-10-01T16:48:32.494Z,16.86
2022-10-01T16:51:08.156Z,16.81
2022-10-01T16:57:55.552Z,16.80
2022-10-01T17:01:13.934Z,16.71
2022-10-01T17:04:13.416Z,16.59
2022-10-01T17:07:20.149Z,16.48
2022-10-01T17:10:01.025Z,16.40
2022-10-01T17:12:49.123Z,16.32
2022-10-01T17:15:31.685Z,16.25
2022-10-01T17:18:10.526Z,16.17
2022-10-01T17:21:36.222Z,16.08
2022-10-01T17:25:02.243Z,16.00
2022-10-01T17:27:44.770Z,15.87
2022-10-01T17:30:12.628Z,15.77
2022-10-01T17:32:54.820Z,15.66
2022-10-01T17:35:31.575Z,15.56
2022-10-01T17:38:09.406Z,15.46
2022-10-01T17:41:25.370Z,15.38
2022-10-01T17:43:57.556Z,15.30
2022-10-01T17:46:25.293Z,15.24
2022-10-01T17:49:47.838Z,15.14
2022-10-01T17:52:29.733Z,15.06
2022-10-01T17:55:26.336Z,14.97
2022-10-01T17:58:23.448Z,14.89
2022-10-01T18:01:30.857Z,14.81
2022-10-01T18:04:32.892Z,14.74
2022-10-01T18:07:41.467Z,14.67
2022-10-01T18:10:29.314Z,14.62
2022-10-01T18:13:13.415Z,14.57
2022-10-01T18:16:56.546Z,14.51
2022-10-01T18:20:05.694Z,14.45
2022-10-01T18:22:59.693Z,14.39
2022-10-01T18:25:29.873Z,14.34
2022-10-01T18:28:43.969Z,14.29
2022-10-01T18:31:44.272Z,14.23
2022-10-01T18:34:57.280Z,14.17
2022-10-01T18:37:43.375Z,14.11
2022-10-01T18:40:42.104Z,14.06
2022-10-01T18:43:43.081Z,14.01
2022-10-01T18:46:46.870Z,13.97
2022-10-01T18:49:24.767Z,13.95
2022-10-01T18:52:14.660Z,13.92
2022-10-01T18:54:55.887Z,13.92
2022-10-01T18:57:38.132Z,13.94
2022-10-01T19:00:14.839Z,13.96
2022-10-01T19:03:40.769Z,14.00
2022-10-01T19:06:30.689Z,14.00
2022-10-01T19:09:32.310Z,13.87
2022-10-01T19:12:29.205Z,13.74
2022-10-01T19:15:23.684Z,13.64
2022-10-01T19:18:24.642Z,13.56
2022-10-01T19:21:20.126Z,13.48
2022-10-01T19:24:22.683Z,13.37
2022-10-01T19:27:13.118Z,13.30
2022-10-01T19:30:06.004Z,13.25
2022-10-01T19:32:42.385Z,13.19
2022-10-01T19:35:41.670Z,13.13
2022-10-01T19:38:59.906Z,13.09
2022-10-01T19:41:50.907Z,13.04
2022-10-01T19:44:42.214Z,13.01
2022-10-01T19:48:09.457Z,12.95
2022-10-01T19:51:04.936Z,12.92
2022-10-01T19:53:46.321Z,12.89
2022-10-01T19:56:37.827Z,12.86
2022-10-01T19:59:28.749Z,12.85
2022-10-01T20:02:13.957Z,12.83
2022-10-01T20:05:00.537Z,12.83
2022-10-01T20:07:40.348Z,12.82
2022-10-01T20:10:18.406Z,12.79
2022-10-01T20:13:32.092Z,12.77
2022-10-01T20:16:18.461Z,12.74
2022-10-01T20:18:51.186Z,12.72
2022-10-01T20:21:45.988Z,12.69
2022-10-01T20:24:41.099Z,12.67
2022-10-01T20:27:36.557Z,12.65
2022-10-01T20:30:30.707Z,12.62
2022-10-01T20:33:43.150Z,12.60
2022-10-01T20:36:15.801Z,12.60
2022-10-01T20:39:26.222Z,12.62
2022-10-01T20:42:17.643Z,12.62
2022-10-01T20:44:51.695Z,12.63
2022-10-01T20:47:49.240Z,12.63
2022-10-01T20:50:43.218Z,12.61
2022-10-01T20:53:35.357Z,12.59
2022-10-01T21:00:47.536Z,12.52
2022-10-01T21:04:01.556Z,12.51
2022-10-01T21:11:14.660Z,12.48
2022-10-01T21:14:18.447Z,12.48
2022-10-01T21:17:28.557Z,12.48
2022-10-01T21:20:43.115Z,12.47
2022-10-01T21:23:35.418Z,12.45
2022-10-01T21:26:50.084Z,12.44
2022-10-01T21:29:50.913Z,12.41
2022-10-01T21:33:04.388Z,12.39
2022-10-01T21:36:19.106Z,12.38
2022-10-01T21:39:30.875Z,12.37
2022-10-01T21:42:26.539Z,12.38
2022-10-01T21:45:38.624Z,12.38
2022-10-01T21:48:43.567Z,12.39
2022-10-01T21:51:56.049Z,12.40
2022-10-01T21:55:19.318Z,12.43
2022-10-01T22:02:16.108Z,12.45
2022-10-01T22:05:51.427Z,12.44
2022-10-01T22:08:56.113Z,12.42
2022-10-01T22:12:00.102Z,12.38
2022-10-01T22:15:10.672Z,12.36
2022-10-01T22:18:20.597Z,12.34
2022-10-01T22:21:34.199Z,12.33
2022-10-01T22:24:15.673Z,12.33
2022-10-01T22:27:27.791Z,12.32
2022-10-01T22:30:09.440Z,12.32
2022-10-01T22:33:16.387Z,12.32
2022-10-01T22:40:35.394Z,12.31
2022-10-01T22:43:45.190Z,12.31
2022-10-01T22:51:08.330Z,12.30
2022-10-01T22:54:23.355Z,12.29
2022-10-01T22:57:30.412Z,12.29
2022-10-01T23:00:26.291Z,12.28
2022-10-01T23:03:18.756Z,12.27
2022-10-01T23:06:21.695Z,12.25
2022-10-01T23:09:09.141Z,12.24
2022-10-01T23:12:10.461Z,12.23
2022-10-01T23:14:57.990Z,12.23
2022-10-01T23:18:06.418Z,12.24
2022-10-01T23:21:11.828Z,12.24
2022-10-01T23:24:16.330Z,12.23
2022-10-01T23:27:31.308Z,12.23
2022-10-01T23:30:19.186Z,12.24
2022-10-01T23:33:17.511Z,12.24
2022-10-01T23:36:27.391Z,12.25
2022-10-01T23:39:30.590Z,12.24
2022-10-01T23:42:26.597Z,12.25
2022-10-01T23:45:38.227Z,12.25
2022-10-01T23:48:49.786Z,12.27
2022-10-01T23:51:38.567Z,12.28
2022-10-01T23:54:56.685Z,12.31
2022-10-01T23:57:49.533Z,12.31
